Time;durP1;ratioP1;P1;durP2;ratioP2;P2;SDS_P1;SDS_P2;PMS_P1;PMS_P2;Temp;Humidity;BMP_temperature;BMP_pressure;BME280_temperature;BME280_humidity;BME280_pressure;Samples;Min_cycle;Max_cycle;Signal;HPM_P1;HPM_P2
2023/08/15 00:00:23;;;;;;;23.83;13.55;;;24.20;90.20;;;;;;5094403;28;20475;-67
2023/08/15 00:03:26;;;;;;;18.95;13.55;;;24.20;90.00;;;;;;5094273;28;20067;-67
2023/08/15 00:06:30;;;;;;;21.48;13.68;;;24.20;90.30;;;;;;5093976;28;20040;-67
2023/08/15 00:09:34;;;;;;;24.45;14.15;;;24.20;90.00;;;;;;5093773;28;20055;-67
2023/08/15 00:12:38;;;;;;;25.70;14.63;;;24.20;89.80;;;;;;5094068;28;20039;-67
2023/08/15 00:15:43;;;;;;;21.15;13.57;;;24.10;90.20;;;;;;5093876;28;20043;-67
2023/08/15 00:18:47;;;;;;;22.98;14.13;;;23.90;90.10;;;;;;5093976;28;20047;-67
2023/08/15 00:21:51;;;;;;;29.73;15.18;;;23.90;90.30;;;;;;5093791;28;20502;-67
2023/08/15 00:24:55;;;;;;;22.52;13.18;;;23.90;90.50;;;;;;5093639;28;20305;-67
2023/08/15 00:27:59;;;;;;;24.05;13.13;;;23.90;90.40;;;;;;5093854;28;20043;-67
2023/08/15 00:31:03;;;;;;;21.00;13.10;;;23.90;90.40;;;;;;5092776;28;20059;-67
2023/08/15 00:34:07;;;;;;;20.40;12.75;;;23.90;90.60;;;;;;5093621;28;20047;-67
2023/08/15 00:37:11;;;;;;;19.23;12.90;;;23.90;90.10;;;;;;5093518;28;20047;-67
2023/08/15 00:40:15;;;;;;;15.23;11.38;;;23.90;90.20;;;;;;5093517;28;20043;-67
2023/08/15 00:43:19;;;;;;;21.38;12.65;;;23.90;89.80;;;;;;5092687;28;20114;-67
2023/08/15 00:46:27;;;;;;;23.15;12.77;;;23.70;89.50;;;;;;5080891;28;20051;-67
2023/08/15 00:49:32;;;;;;;19.52;12.00;;;23.60;89.70;;;;;;5092103;28;20043;-67
2023/08/15 00:52:36;;;;;;;19.30;10.60;;;23.70;89.20;;;;;;5093074;28;20051;-67
2023/08/15 00:55:41;;;;;;;12.77;10.13;;;23.50;87.50;;;;;;5091795;28;20035;-67
2023/08/15 00:58:46;;;;;;;15.07;9.70;;;23.50;85.80;;;;;;5092677;28;20043;-67
2023/08/15 01:01:50;;;;;;;13.18;9.88;;;23.50;86.50;;;;;;5092042;28;20039;-67
2023/08/15 01:04:54;;;;;;;19.35;9.80;;;23.50;85.90;;;;;;5091927;28;20035;-67
2023/08/15 01:07:58;;;;;;;15.63;9.70;;;23.60;85.70;;;;;;5092812;28;20400;-67
2023/08/15 01:11:04;;;;;;;13.77;10.60;;;22.20;85.90;;;;;;5092548;28;20054;-67
2023/08/15 01:14:14;;;;;;;24.27;9.32;;;23.50;87.10;;;;;;5092796;28;20063;-68
2023/08/15 01:17:26;;;;;;;19.60;10.90;;;23.70;86.70;;;;;;5091862;28;20511;-67
2023/08/15 01:20:35;;;;;;;18.80;11.07;;;23.60;87.20;;;;;;5092680;28;20043;-68
2023/08/15 01:23:41;;;;;;;16.35;10.98;;;;;;;;;;5091544;28;20039;-67
2023/08/15 01:26:46;;;;;;;24.15;10.57;;;23.60;86.70;;;;;;5092054;28;20428;-67
2023/08/15 01:29:50;;;;;;;16.40;10.77;;;23.50;87.40;;;;;;5092287;28;20055;-67
2023/08/15 01:33:09;;;;;;;13.00;10.60;;;23.40;88.20;;;;;;5091428;28;20043;-67
2023/08/15 01:36:24;;;;;;;18.17;11.30;;;23.40;89.00;;;;;;5091038;28;20506;-67
2023/08/15 01:39:29;;;;;;;17.05;12.15;;;23.40;89.50;;;;;;5092284;28;20043;-67
2023/08/15 01:42:35;;;;;;;14.70;11.40;;;23.40;90.10;;;;;;5091846;28;20392;-67
2023/08/15 01:45:39;;;;;;;20.40;11.27;;;23.40;90.00;;;;;;5091666;28;20059;-68
2023/08/15 01:48:44;;;;;;;14.05;10.48;;;23.40;88.90;;;;;;5090892;28;20595;-68
2023/08/15 01:51:49;;;;;;;17.75;10.90;;;23.30;89.00;;;;;;5091339;28;20047;-68
2023/08/15 01:54:52;;;;;;;16.17;11.18;;;23.30;89.50;;;;;;5091837;28;20055;-67
2023/08/15 01:57:56;;;;;;;14.10;10.35;;;23.30;90.00;;;;;;5091167;28;20514;-67
2023/08/15 02:01:02;;;;;;;16.73;10.82;;;23.20;89.50;;;;;;5090927;28;20153;-67
2023/08/15 02:04:06;;;;;;;14.35;11.07;;;23.00;89.90;;;;;;5090850;28;20423;-67
2023/08/15 02:07:10;;;;;;;14.55;10.43;;;23.20;90.20;;;;;;5091583;28;20055;-67
2023/08/15 02:10:14;;;;;;;14.07;11.18;;;23.30;90.20;;;;;;5091539;28;20522;-67
2023/08/15 02:13:18;;;;;;;17.17;10.35;;;23.30;90.10;;;;;;5091519;28;20495;-67
2023/08/15 02:16:22;;;;;;;14.43;11.25;;;23.30;90.20;;;;;;5090897;28;20043;-67
2023/08/15 02:19:26;;;;;;;16.33;11.57;;;23.10;89.80;;;;;;5078808;28;20043;-68
2023/08/15 02:22:31;;;;;;;18.13;11.55;;;23.30;90.10;;;;;;5091097;28;20051;-68
2023/08/15 02:25:35;;;;;;;19.15;12.43;;;;;;;;;;5090870;28;20051;-67
2023/08/15 02:28:39;;;;;;;19.05;12.35;;;24.20;90.40;;;;;;5091372;28;20055;-67
2023/08/15 02:31:47;;;;;;;14.70;12.40;;;23.10;90.00;;;;;;5091440;28;20055;-67
2023/08/15 02:34:52;;;;;;;13.40;10.38;;;22.90;90.20;;;;;;5089949;28;20055;-67
2023/08/15 02:37:55;;;;;;;15.68;11.65;;;22.90;90.20;;;;;;5091113;28;20046;-68
2023/08/15 02:41:00;;;;;;;17.77;11.70;;;;;;;;;;5091142;28;20043;-67
2023/08/15 02:44:04;;;;;;;16.17;11.80;;;22.70;90.40;;;;;;5090918;28;20042;-67
2023/08/15 02:47:08;;;;;;;14.43;11.98;;;23.50;90.80;;;;;;5090922;28;20043;-67
2023/08/15 02:50:12;;;;;;;17.27;12.07;;;22.60;90.80;;;;;;5090165;28;20519;-67
2023/08/15 02:53:16;;;;;;;19.38;11.77;;;22.50;90.50;;;;;;5090396;28;20059;-67
2023/08/15 02:56:20;;;;;;;13.55;11.90;;;22.60;90.60;;;;;;5091221;28;20047;-67
2023/08/15 02:59:23;;;;;;;17.10;11.93;;;22.60;90.80;;;;;;5090427;28;20039;-68
2023/08/15 03:02:27;;;;;;;16.23;11.38;;;22.60;90.80;;;;;;5090332;28;20051;-67
2023/08/15 03:05:32;;;;;;;15.88;11.20;;;22.50;90.50;;;;;;5089803;28;20059;-67
2023/08/15 03:08:35;;;;;;;19.95;11.45;;;22.60;90.50;;;;;;5089998;28;20221;-67
2023/08/15 03:11:40;;;;;;;15.30;11.30;;;22.50;90.50;;;;;;5089929;28;20075;-67
2023/08/15 03:14:44;;;;;;;13.32;10.82;;;22.50;90.80;;;;;;5090936;28;20134;-67
2023/08/15 03:17:48;;;;;;;18.42;11.57;;;22.40;90.50;;;;;;5090054;28;20050;-67
2023/08/15 03:21:01;;;;;;;12.30;11.10;;;22.50;90.80;;;;;;5090922;28;20051;-67
2023/08/15 03:24:07;;;;;;;13.20;11.07;;;22.20;90.90;;;;;;5089881;28;20047;-67
2023/08/15 03:27:11;;;;;;;22.85;12.68;;;22.20;91.00;;;;;;5089508;28;20051;-67
2023/08/15 03:30:15;;;;;;;18.33;12.82;;;22.10;91.10;;;;;;5090426;28;20047;-67
2023/08/15 03:33:20;;;;;;;17.92;11.77;;;22.10;91.40;;;;;;5089947;28;20143;-67
2023/08/15 03:36:26;;;;;;;15.93;12.02;;;22.20;91.20;;;;;;5089404;28;20044;-68
2023/08/15 03:39:30;;;;;;;20.10;12.73;;;22.20;91.10;;;;;;5089700;28;20122;-67
2023/08/15 03:42:34;;;;;;;14.35;12.25;;;22.30;91.30;;;;;;5089821;28;20047;-67
2023/08/15 03:45:39;;;;;;;18.92;12.85;;;22.40;91.00;;;;;;5090116;28;20043;-67
2023/08/15 03:48:44;;;;;;;22.50;12.63;;;22.30;91.10;;;;;;5090597;28;20186;-67
2023/08/15 03:51:47;;;;;;;17.17;12.68;;;22.40;90.90;;;;;;5090301;28;20514;-67
2023/08/15 03:54:53;;;;;;;20.38;13.30;;;22.40;91.20;;;;;;5089208;28;20518;-67
2023/08/15 03:57:57;;;;;;;19.63;13.23;;;22.20;91.10;;;;;;5090625;28;20039;-67
2023/08/15 04:01:01;;;;;;;23.27;14.73;;;22.30;91.30;;;;;;5090734;28;20055;-67
2023/08/15 04:04:06;;;;;;;20.27;14.65;;;22.20;91.30;;;;;;5090841;28;20047;-67
2023/08/15 04:07:09;;;;;;;27.23;14.35;;;22.20;91.50;;;;;;5093310;28;20039;-67
2023/08/15 04:10:14;;;;;;;17.90;12.27;;;21.10;91.00;;;;;;5093011;28;20051;-68
2023/08/15 04:13:18;;;;;;;16.88;11.50;;;22.40;90.80;;;;;;5092803;28;20035;-67
2023/08/15 04:16:23;;;;;;;13.98;10.85;;;22.30;90.80;;;;;;5092860;28;20043;-67
2023/08/15 04:19:27;;;;;;;20.35;10.85;;;22.30;90.70;;;;;;5092965;28;20047;-67
2023/08/15 04:22:31;;;;;;;15.60;12.55;;;22.20;90.80;;;;;;5093762;28;20377;-67
2023/08/15 04:25:37;;;;;;;16.55;11.68;;;22.20;90.90;;;;;;5092599;28;20047;-67
2023/08/15 04:28:42;;;;;;;13.45;11.20;;;23.30;91.20;;;;;;5092492;28;20416;-67
2023/08/15 04:31:46;;;;;;;20.58;11.57;;;22.60;91.30;;;;;;5092781;28;20126;-67
2023/08/15 04:34:50;;;;;;;16.95;11.90;;;22.30;91.00;;;;;;5093440;28;20043;-67
2023/08/15 04:37:56;;;;;;;16.33;11.75;;;22.30;91.00;;;;;;5092654;28;20059;-67
2023/08/15 04:41:00;;;;;;;16.55;11.13;;;22.30;90.90;;;;;;5092542;28;20400;-67
2023/08/15 04:44:05;;;;;;;14.45;11.35;;;22.20;91.10;;;;;;5093063;28;20039;-67
2023/08/15 04:47:08;;;;;;;16.15;11.35;;;22.40;90.90;;;;;;5093059;28;20047;-67
2023/08/15 04:50:12;;;;;;;20.23;11.35;;;22.40;91.20;;;;;;5093321;28;20051;-67
2023/08/15 04:53:16;;;;;;;18.05;11.73;;;24.40;90.90;;;;;;5092807;28;20043;-68
2023/08/15 04:56:21;;;;;;;16.55;10.82;;;23.00;90.30;;;;;;5093120;28;20059;-67
2023/08/15 04:59:25;;;;;;;18.25;10.60;;;22.90;90.70;;;;;;5092274;28;20059;-68
2023/08/15 05:02:29;;;;;;;17.35;11.85;;;23.40;90.20;;;;;;5080498;28;20055;-68
2023/08/15 05:05:33;;;;;;;22.00;12.35;;;24.20;87.30;;;;;;5093385;28;20067;-67
2023/08/15 05:08:37;;;;;;;16.50;11.52;;;25.10;84.90;;;;;;5091881;28;20051;-68
2023/08/15 05:11:42;;;;;;;18.92;11.38;;;26.00;82.90;;;;;;5091584;28;20077;-68
2023/08/15 05:14:47;;;;;;;18.38;12.05;;;26.70;80.30;;;;;;5092170;28;20502;-68
2023/08/15 05:17:52;;;;;;;22.75;12.40;;;27.90;80.30;;;;;;5092383;28;20047;-68
2023/08/15 05:20:56;;;;;;;32.45;16.45;;;27.40;78.50;;;;;;5092812;28;20047;-68
2023/08/15 05:24:00;;;;;;;29.65;16.80;;;28.30;77.00;;;;;;5091612;28;20043;-68
2023/08/15 05:27:05;;;;;;;31.52;14.60;;;28.60;77.70;;;;;;5091289;28;20435;-67
2023/08/15 05:30:10;;;;;;;16.48;12.38;;;28.10;76.70;;;;;;5091610;28;20047;-68
2023/08/15 05:33:14;;;;;;;19.02;11.55;;;26.80;77.40;;;;;;5091130;28;20122;-68
2023/08/15 05:36:18;;;;;;;22.95;11.93;;;27.20;78.70;;;;;;5091095;28;20043;-68
2023/08/15 05:39:22;;;;;;;17.40;10.93;;;27.00;79.60;;;;;;5091203;28;20039;-67
2023/08/15 05:42:25;;;;;;;14.43;10.10;;;26.50;80.50;;;;;;5092237;28;20510;-68
2023/08/15 05:45:29;;;;;;;27.10;10.98;;;26.40;82.00;;;;;;5091655;28;20051;-67
2023/08/15 05:48:33;;;;;;;15.38;10.68;;;26.00;82.10;;;;;;5092164;28;20035;-67
2023/08/15 05:51:37;;;;;;;20.75;10.52;;;25.80;83.40;;;;;;5091685;28;20407;-67
2023/08/15 05:54:41;;;;;;;14.43;9.95;;;26.00;83.10;;;;;;5091794;28;20046;-68
2023/08/15 05:57:45;;;;;;;13.73;10.43;;;26.10;82.70;;;;;;5092145;28;20047;-67
2023/08/15 06:00:51;;;;;;;16.48;11.15;;;26.20;82.40;;;;;;5091842;28;20043;-68
2023/08/15 06:03:55;;;;;;;16.92;9.55;;;26.20;82.30;;;;;;5091702;28;20392;-67
2023/08/15 06:06:59;;;;;;;17.75;9.90;;;26.30;81.80;;;;;;5091600;28;20043;-67
2023/08/15 06:10:03;;;;;;;13.68;9.55;;;26.30;82.20;;;;;;5091299;28;20043;-67
2023/08/15 06:13:07;;;;;;;12.63;9.35;;;26.60;81.70;;;;;;5091606;28;20047;-67
2023/08/15 06:16:11;;;;;;;22.92;10.40;;;26.90;81.70;;;;;;5091653;28;20392;-68
2023/08/15 06:19:15;;;;;;;21.08;11.05;;;27.00;81.20;;;;;;5091279;28;20043;-67
2023/08/15 06:22:19;;;;;;;15.45;10.05;;;27.10;81.10;;;;;;5091341;28;20039;-67
2023/08/15 06:25:23;;;;;;;18.38;9.30;;;27.10;80.80;;;;;;5091166;28;20043;-69
2023/08/15 06:28:28;;;;;;;19.23;9.75;;;27.30;80.90;;;;;;5091342;28;20047;-68
2023/08/15 06:31:35;;;;;;;11.98;9.23;;;27.50;80.30;;;;;;5091199;28;20070;-67
2023/08/15 06:34:39;;;;;;;12.18;9.55;;;27.80;79.60;;;;;;5091187;28;20055;-67
2023/08/15 06:37:44;;;;;;;15.23;10.88;;;28.20;79.30;;;;;;5091454;28;20047;-68
2023/08/15 06:40:49;;;;;;;16.02;12.00;;;28.40;78.50;;;;;;5091283;28;20059;-67
2023/08/15 06:43:52;;;;;;;13.85;10.10;;;28.20;79.00;;;;;;5090959;28;20399;-67
2023/08/15 06:46:56;;;;;;;21.63;10.60;;;28.40;79.60;;;;;;5091252;28;20051;-67
2023/08/15 06:50:00;;;;;;;13.50;9.57;;;28.80;78.60;;;;;;5091131;28;20495;-67
2023/08/15 06:53:04;;;;;;;17.83;11.10;;;29.20;78.30;;;;;;5091170;28;20058;-68
2023/08/15 06:56:09;;;;;;;13.52;9.52;;;29.30;77.00;;;;;;5091133;28;20063;-68
2023/08/15 06:59:13;;;;;;;15.25;8.70;;;29.30;76.90;;;;;;5090735;28;20035;-68
2023/08/15 07:02:17;;;;;;;18.98;8.75;;;29.40;76.60;;;;;;5090837;28;20051;-68
2023/08/15 07:05:21;;;;;;;11.45;8.88;;;29.80;75.80;;;;;;5090757;28;20039;-68
2023/08/15 07:08:25;;;;;;;18.88;8.50;;;30.20;74.80;;;;;;5090852;28;20042;-68
2023/08/15 07:11:29;;;;;;;10.82;8.07;;;30.50;74.90;;;;;;5090599;28;20129;-68
2023/08/15 07:14:33;;;;;;;14.73;8.13;;;30.80;75.90;;;;;;5090688;28;20106;-68
2023/08/15 07:17:37;;;;;;;12.05;7.07;;;30.80;76.30;;;;;;5090913;28;20043;-67
2023/08/15 07:20:40;;;;;;;9.25;5.88;;;31.00;77.30;;;;;;5091044;28;20297;-67
2023/08/15 07:23:45;;;;;;;10.15;5.82;;;31.30;79.80;;;;;;5089716;28;20039;-68
2023/08/15 07:26:49;;;;;;;6.85;5.25;;;31.40;79.70;;;;;;5090425;28;20055;-67
2023/08/15 07:29:53;;;;;;;11.65;7.15;;;31.50;79.70;;;;;;5090544;28;20043;-68
2023/08/15 07:32:57;;;;;;;15.30;7.88;;;31.70;76.90;;;;;;5090570;28;20522;-68
2023/08/15 07:36:01;;;;;;;10.45;6.18;;;31.30;77.20;;;;;;5090266;28;20043;-68
2023/08/15 07:39:05;;;;;;;10.60;6.30;;;31.40;77.90;;;;;;5091519;28;20161;-68
2023/08/15 07:42:10;;;;;;;9.80;4.63;;;31.70;78.10;;;;;;5094651;28;20399;-68
2023/08/15 07:45:14;;;;;;;5.30;4.78;;;32.00;78.40;;;;;;5094779;28;20387;-68
2023/08/15 07:48:18;;;;;;;9.25;4.53;;;32.40;78.20;;;;;;5094563;28;20039;-68
2023/08/15 07:51:22;;;;;;;5.68;4.70;;;32.50;77.40;;;;;;5094456;28;20050;-67
2023/08/15 07:54:26;;;;;;;7.60;4.60;;;32.30;77.20;;;;;;5093916;28;20054;-67
2023/08/15 07:57:30;;;;;;;8.68;4.72;;;32.40;78.00;;;;;;5094287;28;20043;-67
2023/08/15 08:00:34;;;;;;;8.00;4.43;;;32.50;77.20;;;;;;5094013;28;20043;-68
2023/08/15 08:03:41;;;;;;;9.88;4.22;;;32.30;75.80;;;;;;5094160;28;20039;-68
2023/08/15 08:06:45;;;;;;;10.68;4.80;;;32.10;76.00;;;;;;5094031;28;20051;-68
2023/08/15 08:09:49;;;;;;;5.05;4.25;;;32.20;76.90;;;;;;5094097;28;20043;-68
2023/08/15 08:12:53;;;;;;;6.43;4.75;;;32.40;77.20;;;;;;5094035;28;20404;-67
2023/08/15 08:15:58;;;;;;;9.68;4.55;;;32.40;77.00;;;;;;5093707;28;20039;-68
2023/08/15 08:19:02;;;;;;;5.35;4.30;;;32.20;77.20;;;;;;5093607;28;20039;-68
2023/08/15 08:22:06;;;;;;;6.40;4.82;;;32.10;77.60;;;;;;5093944;28;20106;-68
2023/08/15 08:25:20;;;;;;;5.53;5.03;;;32.20;77.80;;;;;;5093353;28;20509;-68
2023/08/15 08:28:26;;;;;;;16.90;5.38;;;32.30;76.80;;;;;;5093578;28;20058;-68
2023/08/15 08:31:29;;;;;;;10.50;4.18;;;32.10;76.20;;;;;;5093529;28;20059;-68
2023/08/15 08:34:34;;;;;;;5.60;4.35;;;32.20;75.70;;;;;;5093741;28;20502;-68
2023/08/15 08:37:38;;;;;;;5.82;3.80;;;32.30;73.90;;;;;;5093528;28;20046;-68
2023/08/15 08:40:42;;;;;;;8.30;4.68;;;32.30;74.70;;;;;;5093496;28;20051;-68
2023/08/15 08:43:47;;;;;;;6.50;4.18;;;32.40;72.80;;;;;;5093256;28;20498;-68
2023/08/15 08:46:51;;;;;;;4.80;3.92;;;32.50;71.90;;;;;;5093063;28;20051;-68
2023/08/15 08:49:58;;;;;;;5.47;4.00;;;32.30;72.30;;;;;;5092419;28;20039;-67
2023/08/15 08:53:03;;;;;;;5.97;4.40;;;32.30;72.50;;;;;;5092835;28;20059;-68
2023/08/15 08:56:07;;;;;;;7.07;4.50;;;32.50;72.30;;;;;;5093185;28;20039;-68
2023/08/15 08:59:12;;;;;;;6.03;4.35;;;32.40;72.30;;;;;;5093071;28;20043;-68
2023/08/15 09:02:22;;;;;;;7.32;4.40;;;32.30;72.50;;;;;;5092984;28;20186;-67
2023/08/15 09:05:27;;;;;;;6.30;4.22;;;32.30;71.90;;;;;;5092451;28;20047;-68
2023/08/15 09:08:30;;;;;;;6.20;3.80;;;32.30;71.20;;;;;;5092513;28;20419;-68
2023/08/15 09:11:36;;;;;;;7.35;3.92;;;32.40;70.60;;;;;;5092771;28;20055;-68
2023/08/15 09:14:40;;;;;;;5.50;3.90;;;32.60;70.30;;;;;;5092326;28;20051;-68
2023/08/15 09:17:44;;;;;;;7.03;4.63;;;32.70;70.40;;;;;;5092512;28;20400;-68
2023/08/15 09:20:48;;;;;;;4.30;3.90;;;32.60;70.30;;;;;;5092659;28;20051;-68
2023/08/15 09:23:52;;;;;;;5.25;4.10;;;32.60;70.60;;;;;;5092429;28;20499;-68
2023/08/15 09:26:56;;;;;;;7.28;4.38;;;32.60;71.40;;;;;;5092400;28;20070;-68
2023/08/15 09:30:14;;;;;;;7.03;5.38;;;32.70;71.50;;;;;;5092299;28;20055;-68
2023/08/15 09:33:19;;;;;;;5.43;4.50;;;32.70;70.60;;;;;;5092368;28;20633;-68
2023/08/15 09:36:24;;;;;;;8.15;5.70;;;32.70;71.10;;;;;;5092574;28;20047;-68
2023/08/15 09:39:28;;;;;;;5.47;4.97;;;32.60;72.00;;;;;;5092296;28;20043;-68
2023/08/15 09:42:32;;;;;;;10.68;5.65;;;32.60;72.70;;;;;;5092472;28;20042;-68
2023/08/15 09:45:37;;;;;;;7.55;6.25;;;32.60;73.00;;;;;;5092187;28;20046;-68
2023/08/15 09:48:43;;;;;;;9.48;6.10;;;32.60;73.00;;;;;;5091860;28;20067;-68
2023/08/15 09:51:47;;;;;;;7.15;5.90;;;32.70;73.40;;;;;;5092029;28;20051;-68
2023/08/15 09:54:51;;;;;;;9.48;7.18;;;32.80;73.90;;;;;;5091709;28;20059;-68
2023/08/15 09:57:56;;;;;;;9.20;6.55;;;32.80;74.00;;;;;;5091685;28;20067;-68
2023/08/15 10:01:03;;;;;;;11.68;6.38;;;32.80;74.10;;;;;;5091485;28;20506;-68
2023/08/15 10:04:11;;;;;;;9.52;5.80;;;32.90;74.10;;;;;;5091423;28;20043;-68
2023/08/15 10:07:16;;;;;;;6.57;5.97;;;33.00;73.80;;;;;;5091566;28;20043;-68
2023/08/15 10:10:21;;;;;;;8.32;6.70;;;33.00;73.80;;;;;;5091428;28;20043;-68
2023/08/15 10:13:31;;;;;;;9.48;6.00;;;33.00;74.60;;;;;;5091727;28;20067;-68
2023/08/15 10:16:35;;;;;;;8.20;6.35;;;33.00;74.80;;;;;;5091459;28;20043;-68
2023/08/15 10:19:46;;;;;;;9.50;5.65;;;33.10;73.70;;;;;;5091253;28;20047;-68
2023/08/15 10:22:54;;;;;;;7.57;6.13;;;33.20;74.00;;;;;;5091321;28;20043;-68
2023/08/15 10:25:58;;;;;;;7.00;5.32;;;33.20;72.30;;;;;;5090946;28;20059;-68
2023/08/15 10:29:03;;;;;;;7.20;6.28;;;33.20;72.30;;;;;;5091300;28;20045;-68
2023/08/15 10:32:08;;;;;;;9.35;6.30;;;33.20;72.80;;;;;;5091112;28;20047;-68
2023/08/15 10:35:12;;;;;;;9.63;5.70;;;33.20;73.50;;;;;;5090867;28;20043;-68
2023/08/15 10:38:17;;;;;;;7.53;6.13;;;33.10;74.90;;;;;;5090911;28;20055;-68
2023/08/15 10:41:21;;;;;;;7.82;6.38;;;33.00;74.80;;;;;;5091229;28;20051;-68
2023/08/15 10:44:26;;;;;;;10.93;6.40;;;33.00;75.60;;;;;;5090447;28;20051;-68
2023/08/15 10:47:41;;;;;;;8.38;6.63;;;33.20;76.50;;;;;;5091295;28;20043;-68
2023/08/15 10:50:47;;;;;;;10.85;7.20;;;33.20;76.20;;;;;;5094367;28;20062;-68
2023/08/15 10:54:02;;;;;;;9.30;7.05;;;33.20;76.20;;;;;;5090848;28;20055;-68
2023/08/15 10:57:06;;;;;;;14.85;10.27;;;33.10;76.10;;;;;;5090880;28;20043;-68
2023/08/15 11:00:10;;;;;;;9.07;7.32;;;33.10;76.40;;;;;;5090843;28;20047;-68
2023/08/15 11:03:14;;;;;;;11.27;6.95;;;33.00;76.70;;;;;;5090555;28;20043;-68
2023/08/15 11:06:19;;;;;;;8.10;6.80;;;33.00;77.30;;;;;;5090930;28;20043;-68
2023/08/15 11:09:32;;;;;;;16.40;7.28;;;32.80;77.50;;;;;;5090788;28;20063;-68
2023/08/15 11:12:36;;;;;;;7.35;5.70;;;32.80;77.80;;;;;;5091057;28;20067;-68
2023/08/15 11:15:40;;;;;;;11.88;9.75;;;32.80;78.20;;;;;;5095089;28;20039;-68
2023/08/15 11:18:45;;;;;;;11.13;6.18;;;32.70;77.70;;;;;;5095081;28;20043;-68
2023/08/15 11:21:50;;;;;;;15.65;6.57;;;32.70;77.80;;;;;;5094776;28;20039;-68
2023/08/15 11:24:55;;;;;;;8.82;5.63;;;32.60;78.00;;;;;;5094672;28;20403;-68
2023/08/15 11:27:58;;;;;;;6.40;5.15;;;32.60;77.50;;;;;;5094748;28;20051;-68
2023/08/15 11:31:10;;;;;;;9.05;5.13;;;32.60;77.60;;;;;;5094389;28;20064;-68
2023/08/15 11:34:15;;;;;;;7.80;5.20;;;32.50;77.60;;;;;;5094460;28;20050;-68
2023/08/15 11:37:19;;;;;;;7.88;5.22;;;32.40;77.00;;;;;;5093722;28;20388;-68
2023/08/15 11:40:23;;;;;;;8.45;5.30;;;32.30;77.30;;;;;;5094422;28;20503;-68
2023/08/15 11:43:34;;;;;;;7.38;6.03;;;32.30;77.20;;;;;;5094281;28;20039;-68
2023/08/15 11:46:39;;;;;;;7.45;4.90;;;32.20;77.30;;;;;;5094678;28;20051;-68
2023/08/15 11:49:46;;;;;;;7.15;5.25;;;32.20;77.00;;;;;;5094239;28;20059;-68
2023/08/15 11:52:50;;;;;;;6.63;5.10;;;32.20;77.50;;;;;;5094114;28;20062;-68
2023/08/15 11:55:54;;;;;;;7.72;5.18;;;32.10;77.60;;;;;;5094255;28;20212;-68
2023/08/15 11:59:03;;;;;;;5.55;5.05;;;32.10;77.60;;;;;;5094414;28;20384;-68
2023/08/15 12:02:11;;;;;;;9.17;6.33;;;32.00;77.50;;;;;;5094126;28;20043;-68
2023/08/15 12:05:19;;;;;;;10.32;4.63;;;32.10;77.50;;;;;;5094182;28;20289;-68
2023/08/15 12:08:27;;;;;;;10.32;4.57;;;32.10;77.60;;;;;;5094216;28;20039;-68
2023/08/15 12:11:34;;;;;;;6.70;4.35;;;32.10;77.70;;;;;;5093847;28;20054;-68
2023/08/15 12:14:38;;;;;;;6.80;3.90;;;32.00;77.30;;;;;;5094059;28;20039;-68
2023/08/15 12:17:42;;;;;;;5.20;3.63;;;32.00;78.00;;;;;;5094130;28;20071;-68
2023/08/15 12:20:46;;;;;;;9.48;4.20;;;31.90;78.10;;;;;;5093993;28;20043;-68
2023/08/15 12:23:50;;;;;;;5.03;3.80;;;31.80;76.40;;;;;;5093526;28;20047;-68
2023/08/15 12:26:54;;;;;;;5.30;3.22;;;31.80;75.10;;;;;;5093569;28;20082;-68
2023/08/15 12:29:58;;;;;;;6.50;3.40;;;31.80;75.30;;;;;;5093588;28;20043;-68
2023/08/15 12:33:02;;;;;;;4.25;3.10;;;31.80;73.20;;;;;;5093754;28;20047;-68
2023/08/15 12:36:06;;;;;;;6.10;3.00;;;31.70;73.90;;;;;;5093635;28;20035;-68
2023/08/15 12:39:10;;;;;;;4.35;3.15;;;31.70;69.20;;;;;;5093704;28;20122;-68
2023/08/15 12:42:14;;;;;;;4.68;3.30;;;31.70;71.90;;;;;;5093261;28;20035;-68
2023/08/15 12:45:18;;;;;;;3.47;3.05;;;31.70;73.60;;;;;;5093499;28;20047;-68
2023/08/15 12:48:22;;;;;;;7.43;3.33;;;31.70;73.40;;;;;;5093447;28;20043;-68
2023/08/15 12:51:26;;;;;;;5.32;3.40;;;31.70;72.80;;;;;;5093308;28;20047;-68
2023/08/15 12:54:30;;;;;;;4.22;3.78;;;31.70;73.80;;;;;;5092894;28;20067;-67
2023/08/15 12:57:34;;;;;;;8.00;3.70;;;31.70;73.70;;;;;;5092989;28;20102;-67
2023/08/15 13:00:41;;;;;;;5.88;4.07;;;31.70;74.60;;;;;;5093004;28;20047;-67
2023/08/15 13:03:44;;;;;;;5.10;3.20;;;31.60;76.30;;;;;;5092209;28;20039;-67
2023/08/15 13:06:48;;;;;;;5.60;3.42;;;31.60;76.40;;;;;;5093113;28;20502;-67
2023/08/15 13:09:52;;;;;;;6.25;3.03;;;31.50;75.40;;;;;;5093094;28;20043;-67
2023/08/15 13:12:56;;;;;;;3.70;3.22;;;31.50;74.90;;;;;;5092698;28;20051;-67
2023/08/15 13:16:00;;;;;;;3.80;3.17;;;31.50;76.30;;;;;;5092695;28;20047;-67
2023/08/15 13:19:04;;;;;;;4.53;3.22;;;31.50;74.90;;;;;;5092600;28;20114;-67
2023/08/15 13:22:08;;;;;;;6.32;3.20;;;31.40;75.10;;;;;;5092853;28;20114;-67
2023/08/15 13:25:12;;;;;;;3.72;3.05;;;31.40;75.50;;;;;;5092506;28;20051;-67
2023/08/15 13:28:16;;;;;;;5.63;3.60;;;31.40;76.80;;;;;;5091937;28;20062;-68
2023/08/15 13:31:19;;;;;;;5.97;3.60;;;31.40;77.80;;;;;;5092549;28;20051;-69
2023/08/15 13:34:25;;;;;;;6.55;3.65;;;31.40;78.70;;;;;;5092047;28;20040;-69
2023/08/15 13:37:28;;;;;;;4.78;3.50;;;31.30;79.10;;;;;;5091803;28;20047;-67
2023/08/15 13:40:33;;;;;;;10.70;3.88;;;31.30;79.10;;;;;;5092425;28;20495;-67
2023/08/15 13:43:37;;;;;;;7.95;3.67;;;31.30;78.50;;;;;;5092118;28;20499;-67
2023/08/15 13:46:42;;;;;;;7.03;3.17;;;31.20;78.00;;;;;;5091861;28;20408;-67
2023/08/15 13:49:46;;;;;;;10.00;3.42;;;31.20;77.60;;;;;;5092108;28;20043;-66
2023/08/15 13:52:50;;;;;;;7.97;3.85;;;31.20;77.70;;;;;;5091774;28;20051;-67
2023/08/15 13:55:55;;;;;;;4.10;3.00;;;31.10;76.70;;;;;;5092142;28;20039;-67
2023/08/15 13:58:59;;;;;;;6.68;3.33;;;31.20;76.40;;;;;;5092124;28;20051;-67
2023/08/15 14:02:03;;;;;;;3.80;2.97;;;31.20;75.70;;;;;;5092009;28;20051;-67
2023/08/15 14:05:07;;;;;;;8.63;3.40;;;31.20;75.40;;;;;;5091799;28;20043;-67
2023/08/15 14:08:11;;;;;;;7.60;3.45;;;31.20;76.60;;;;;;5091905;28;20427;-67
2023/08/15 14:11:15;;;;;;;3.08;2.75;;;31.10;76.60;;;;;;5091892;28;20149;-67
2023/08/15 14:14:19;;;;;;;2.80;2.60;;;31.10;75.60;;;;;;5091407;28;20165;-67
2023/08/15 14:17:23;;;;;;;3.72;2.83;;;31.10;75.00;;;;;;5091840;28;20046;-67
2023/08/15 14:20:27;;;;;;;4.13;3.00;;;31.10;74.90;;;;;;5091755;28;20403;-67
2023/08/15 14:23:31;;;;;;;7.10;3.28;;;31.10;74.80;;;;;;5091538;28;20047;-67
2023/08/15 14:26:35;;;;;;;3.72;3.25;;;31.00;74.30;;;;;;5091362;28;20047;-67
2023/08/15 14:29:40;;;;;;;4.13;3.13;;;30.90;74.40;;;;;;5091350;28;20039;-67
2023/08/15 14:32:44;;;;;;;4.25;2.80;;;30.90;74.60;;;;;;5091162;28;20051;-67
2023/08/15 14:35:48;;;;;;;9.65;3.70;;;30.90;75.50;;;;;;5091295;28;20043;-67
2023/08/15 14:38:53;;;;;;;3.40;3.10;;;30.90;75.20;;;;;;5091327;28;20047;-67
2023/08/15 14:41:57;;;;;;;7.63;3.40;;;31.00;75.70;;;;;;5091362;28;20045;-67
2023/08/15 14:45:01;;;;;;;4.65;3.55;;;31.00;75.90;;;;;;5091041;28;20043;-67
2023/08/15 14:48:05;;;;;;;6.38;3.30;;;31.00;76.50;;;;;;5090642;28;20380;-67
2023/08/15 14:51:10;;;;;;;3.72;2.83;;;31.00;76.50;;;;;;5091398;28;20427;-67
2023/08/15 14:54:14;;;;;;;3.47;3.17;;;30.90;76.60;;;;;;5091083;28;20059;-68
2023/08/15 14:57:17;;;;;;;3.78;3.28;;;31.00;76.50;;;;;;5090896;28;20047;-68
2023/08/15 15:00:21;;;;;;;3.92;3.30;;;30.90;75.90;;;;;;5090928;28;20046;-67
2023/08/15 15:03:26;;;;;;;4.25;3.10;;;30.90;75.60;;;;;;5090945;28;20036;-67
2023/08/15 15:06:29;;;;;;;3.65;3.00;;;30.90;75.90;;;;;;5090159;28;20051;-68
2023/08/15 15:09:33;;;;;;;3.97;3.03;;;30.90;76.00;;;;;;5090946;28;20042;-67
2023/08/15 15:12:37;;;;;;;4.30;2.88;;;30.90;76.40;;;;;;5090487;28;20051;-68
2023/08/15 15:15:42;;;;;;;5.30;3.35;;;30.80;77.10;;;;;;5090576;28;20036;-68
2023/08/15 15:18:46;;;;;;;4.90;3.28;;;30.80;77.20;;;;;;5090874;28;20392;-68
2023/08/15 15:21:53;;;;;;;4.20;3.30;;;30.80;77.20;;;;;;5090750;28;20424;-68
2023/08/15 15:24:56;;;;;;;3.70;3.35;;;30.70;77.50;;;;;;5090676;28;20058;-68
2023/08/15 15:28:00;;;;;;;4.43;3.38;;;30.70;77.50;;;;;;5050677;28;20055;-68
2023/08/15 15:31:05;;;;;;;6.93;3.70;;;30.60;76.70;;;;;;5050571;28;20032;-68
2023/08/15 15:34:08;;;;;;;5.57;3.58;;;30.60;77.00;;;;;;5050239;28;20099;-68
2023/08/15 15:37:13;;;;;;;7.55;3.20;;;30.60;77.20;;;;;;5050244;28;20048;-68
2023/08/15 15:40:16;;;;;;;4.00;3.28;;;30.50;78.00;;;;;;5050329;28;20052;-68
2023/08/15 15:43:20;;;;;;;5.63;3.95;;;30.50;78.10;;;;;;5050425;28;20040;-68
2023/08/15 15:46:25;;;;;;;4.93;3.70;;;30.50;78.00;;;;;;5050521;28;20052;-68
2023/08/15 15:49:29;;;;;;;9.45;3.88;;;30.40;78.20;;;;;;5050548;28;20051;-68